createdAt,value
2019-03-12T00:01:21.503Z,8.900000
2019-03-12T00:03:51.817Z,7.200000
2019-03-12T00:06:22.220Z,7.200000
2019-03-12T00:08:52.711Z,9.100000
2019-03-12T00:11:23.042Z,9.100000
2019-03-12T00:13:53.392Z,6.100000
2019-03-12T00:16:23.731Z,6.100000
2019-03-12T00:18:53.958Z,7.500000
2019-03-12T00:21:24.311Z,7.500000
2019-03-12T00:23:54.654Z,6.700000
2019-03-12T00:26:25.006Z,6.700000
2019-03-12T00:28:55.362Z,3.100000
2019-03-12T00:31:25.690Z,3.100000
2019-03-12T00:33:56.026Z,4.800000
2019-03-12T00:36:26.358Z,4.800000
2019-03-12T00:39:01.669Z,8.400000
2019-03-12T00:41:32.010Z,8.400000
2019-03-12T00:44:02.382Z,6.900000
2019-03-12T00:46:32.654Z,6.900000
2019-03-12T00:49:03.007Z,8.200000
2019-03-12T00:51:33.453Z,8.200000
2019-03-12T00:54:03.767Z,5.000000
2019-03-12T00:56:34.161Z,5.000000
2019-03-12T00:59:04.544Z,5.700000
2019-03-12T01:01:34.979Z,5.700000
2019-03-12T01:04:05.398Z,10.300000
2019-03-12T01:06:35.732Z,10.300000
2019-03-12T01:09:06.093Z,9.000000
2019-03-12T01:11:36.507Z,9.000000
2019-03-12T01:14:06.805Z,9.500000
2019-03-12T01:16:37.234Z,9.500000
2019-03-12T01:19:07.611Z,7.200000
2019-03-12T01:21:37.980Z,7.200000
2019-03-12T01:24:08.415Z,8.100000
2019-03-12T01:26:38.714Z,8.100000
2019-03-12T01:29:09.113Z,4.900000
2019-03-12T01:31:39.388Z,4.900000
2019-03-12T01:34:09.627Z,9.300000
2019-03-12T01:36:39.951Z,9.300000
2019-03-12T01:50:15.964Z,11.200000
2019-03-12T01:52:46.265Z,5.100000
2019-03-12T01:55:16.593Z,5.100000
2019-03-12T01:57:46.908Z,9.400000
2019-03-12T02:00:17.350Z,9.400000
2019-03-12T02:02:47.659Z,4.400000
2019-03-12T02:05:17.988Z,4.400000
2019-03-12T02:07:48.317Z,5.900000
2019-03-12T02:10:18.636Z,5.900000
2019-03-12T02:12:48.972Z,3.900000
2019-03-12T02:15:19.204Z,3.900000
2019-03-12T02:17:49.545Z,5.000000
2019-03-12T02:20:19.941Z,5.000000
2019-03-12T02:22:50.314Z,5.500000
2019-03-12T02:25:20.633Z,5.500000
2019-03-12T02:27:51.067Z,6.100000
2019-03-12T02:30:21.304Z,6.100000
2019-03-12T02:32:51.638Z,7.200000
2019-03-12T02:35:22.039Z,7.200000
2019-03-12T02:37:52.507Z,6.400000
2019-03-12T02:40:22.869Z,6.400000
2019-03-12T02:42:53.196Z,8.200000
2019-03-12T02:45:23.538Z,8.200000
2019-03-12T02:47:54.078Z,9.700000
2019-03-12T02:50:24.271Z,9.700000
2019-03-12T02:52:54.623Z,5.600000
2019-03-12T02:55:25.038Z,5.600000
2019-03-12T02:57:55.457Z,6.300000
2019-03-12T03:00:25.780Z,6.300000
2019-03-12T03:02:56.332Z,6.100000
2019-03-12T03:05:26.851Z,6.100000
2019-03-12T03:08:02.290Z,6.600000
2019-03-12T03:10:32.597Z,6.600000
2019-03-12T03:13:03.146Z,6.600000
2019-03-12T03:15:33.522Z,6.600000
2019-03-12T03:18:03.990Z,7.200000
2019-03-12T03:20:34.347Z,7.200000
2019-03-12T03:23:04.682Z,9.700000
2019-03-12T03:25:34.990Z,9.700000
2019-03-12T03:28:05.326Z,10.700000
2019-03-12T03:30:40.839Z,10.700000
2019-03-12T03:33:11.261Z,8.500000
2019-03-12T03:35:41.728Z,8.500000
2019-03-12T03:38:12.153Z,6.500000
2019-03-12T03:40:42.477Z,6.500000
2019-03-12T03:43:12.802Z,9.400000
2019-03-12T03:45:43.115Z,9.400000
2019-03-12T03:48:13.548Z,6.200000
2019-03-12T03:50:43.853Z,6.200000
2019-03-12T03:53:14.241Z,7.900000
2019-03-12T03:55:44.659Z,7.900000
2019-03-12T03:58:15.073Z,12.200000
2019-03-12T04:00:45.492Z,12.200000
2019-03-12T04:03:15.887Z,8.400000
2019-03-12T04:05:46.217Z,8.400000
2019-03-12T04:08:16.547Z,7.300000
2019-03-12T04:10:46.861Z,7.300000
2019-03-12T04:13:17.290Z,9.500000
2019-03-12T04:15:47.620Z,9.500000
2019-03-12T04:18:18.032Z,11.600000
2019-03-12T04:20:48.453Z,11.600000
2019-03-12T04:23:18.783Z,10.600000
2019-03-12T04:25:49.127Z,10.600000
2019-03-12T04:28:19.450Z,9.700000
2019-03-12T04:30:49.920Z,9.700000
2019-03-12T04:33:20.277Z,9.100000
2019-03-12T04:35:50.558Z,9.100000
2019-03-12T04:38:21.041Z,15.700000
2019-03-12T04:40:51.357Z,15.700000
2019-03-12T04:43:21.676Z,8.500000
2019-03-12T04:45:52.010Z,8.500000
2019-03-12T04:48:22.328Z,15.000000
2019-03-12T04:50:52.646Z,15.000000
2019-03-12T04:53:22.973Z,11.300000
2019-03-12T04:55:53.285Z,11.300000
2019-03-12T04:58:23.597Z,12.700000
2019-03-12T05:00:53.923Z,12.700000
2019-03-12T05:03:24.249Z,12.300000
2019-03-12T05:05:54.576Z,12.300000
2019-03-12T05:08:24.914Z,13.400000
2019-03-12T05:10:55.234Z,13.400000
2019-03-12T05:13:25.581Z,15.300000
2019-03-12T05:15:56.089Z,15.300000
2019-03-12T05:18:26.406Z,8.300000
2019-03-12T05:20:56.750Z,13.000000
2019-03-12T05:23:32.122Z,13.000000
2019-03-12T05:26:02.469Z,9.900000
2019-03-12T05:28:32.770Z,9.900000
2019-03-12T05:31:03.102Z,10.200000
2019-03-12T05:33:33.429Z,10.200000
2019-03-12T05:36:03.744Z,8.200000
2019-03-12T05:38:34.050Z,8.200000
2019-03-12T05:41:04.492Z,12.300000
2019-03-12T05:43:34.795Z,12.300000
2019-03-12T05:46:05.154Z,12.100000
2019-03-12T05:48:35.466Z,12.100000
2019-03-12T05:51:05.899Z,10.500000
2019-03-12T05:53:36.224Z,10.500000
2019-03-12T05:56:06.443Z,11.300000
2019-03-12T05:58:36.794Z,11.300000
2019-03-12T06:01:07.122Z,8.200000
2019-03-12T06:03:37.442Z,8.200000
2019-03-12T06:06:12.831Z,12.000000
2019-03-12T06:08:43.171Z,12.000000
2019-03-12T06:11:13.508Z,9.500000
2019-03-12T06:13:43.821Z,9.500000
2019-03-12T06:16:14.239Z,9.000000
2019-03-12T06:18:44.587Z,9.000000
2019-03-12T06:21:15.012Z,9.900000
2019-03-12T06:23:45.359Z,9.900000
2019-03-12T06:26:15.714Z,11.600000
2019-03-12T06:28:46.039Z,11.600000
2019-03-12T06:31:16.357Z,8.500000
2019-03-12T06:33:46.794Z,8.500000
2019-03-12T06:36:17.137Z,13.500000
2019-03-12T06:38:47.481Z,13.500000
2019-03-12T06:41:17.845Z,5.900000
2019-03-12T06:43:48.174Z,5.900000
2019-03-12T06:46:18.522Z,9.600000
2019-03-12T06:48:48.765Z,9.600000
2019-03-12T06:51:19.020Z,7.900000
2019-03-12T06:53:49.481Z,7.900000
2019-03-12T06:56:19.902Z,10.700000
2019-03-12T06:58:50.274Z,10.700000
2019-03-12T07:01:20.612Z,6.600000
2019-03-12T07:03:50.967Z,6.600000
2019-03-12T07:06:21.224Z,8.500000
2019-03-12T07:08:51.661Z,8.500000
2019-03-12T07:11:21.992Z,8.700000
2019-03-12T07:13:52.416Z,8.700000
2019-03-12T07:16:22.758Z,5.700000
2019-03-12T07:18:53.118Z,5.700000
2019-03-12T07:21:23.650Z,6.800000
2019-03-12T07:23:54.061Z,6.800000
2019-03-12T07:26:24.420Z,13.900000
2019-03-12T07:28:54.782Z,13.900000
2019-03-12T07:31:25.249Z,10.500000
2019-03-12T07:33:55.760Z,10.500000
2019-03-12T07:36:26.164Z,6.000000
2019-03-12T07:38:56.622Z,6.000000
2019-03-12T07:41:32.360Z,9.400000
2019-03-12T07:44:03.210Z,9.400000
2019-03-12T07:46:33.550Z,8.800000
2019-03-12T07:49:03.841Z,8.800000
2019-03-12T07:51:34.101Z,10.000000
2019-03-12T07:54:04.446Z,10.000000
2019-03-12T07:56:34.816Z,8.500000
2019-03-12T07:59:05.187Z,8.500000
2019-03-12T08:01:35.544Z,6.700000
2019-03-12T08:04:05.807Z,6.700000
2019-03-12T08:06:36.067Z,6.500000
2019-03-12T08:09:06.496Z,6.500000
2019-03-12T08:11:36.818Z,8.700000
2019-03-12T08:14:07.107Z,8.700000
2019-03-12T08:16:37.454Z,7.100000
2019-03-12T08:19:07.731Z,7.100000
2019-03-12T08:21:38.092Z,9.500000
2019-03-12T08:24:08.471Z,9.500000
2019-03-12T08:26:38.973Z,13.900000
2019-03-12T08:29:09.308Z,13.900000
2019-03-12T08:31:39.555Z,8.000000
2019-03-12T08:34:09.935Z,8.000000
2019-03-12T08:36:40.206Z,6.900000
2019-03-12T08:39:10.501Z,6.900000
2019-03-12T08:41:40.887Z,13.000000
2019-03-12T08:44:11.262Z,13.000000
2019-03-12T08:46:41.568Z,8.600000
2019-03-12T08:49:12.050Z,8.600000
2019-03-12T08:51:42.454Z,5.600000
2019-03-12T08:54:12.763Z,5.600000
2019-03-12T08:56:43.036Z,9.900000
2019-03-12T08:59:13.326Z,9.900000
2019-03-12T09:01:47.130Z,8.100000
2019-03-12T09:04:17.903Z,8.100000
2019-03-12T09:06:48.277Z,7.000000
2019-03-12T09:09:18.569Z,7.000000
2019-03-12T09:11:48.999Z,10.600000
2019-03-12T09:14:19.335Z,10.600000
2019-03-12T09:16:49.748Z,5.600000
2019-03-12T09:19:20.103Z,5.600000
2019-03-12T09:21:50.588Z,8.600000
2019-03-12T09:24:20.939Z,8.600000
2019-03-12T09:26:51.331Z,7.300000
2019-03-12T09:29:21.609Z,7.300000
2019-03-12T09:31:51.916Z,4.900000
2019-03-12T09:34:22.225Z,4.900000
2019-03-12T09:36:52.701Z,7.500000
2019-03-12T09:39:23.192Z,7.500000
2019-03-12T09:41:53.442Z,7.500000
2019-03-12T09:44:23.766Z,7.500000
2019-03-12T09:46:54.073Z,7.700000
2019-03-12T09:49:27.381Z,7.700000
2019-03-12T09:51:58.010Z,7.500000
2019-03-12T09:54:28.306Z,7.500000
2019-03-12T09:56:58.564Z,8.100000
2019-03-12T09:59:28.863Z,8.100000
2019-03-12T10:01:59.556Z,8.900000
2019-03-12T10:04:30.168Z,8.900000
2019-03-12T10:07:00.654Z,7.000000
2019-03-12T10:09:31.005Z,6.500000
2019-03-12T10:12:01.341Z,6.500000
2019-03-12T10:14:31.699Z,5.200000
2019-03-12T10:17:02.028Z,5.200000
2019-03-12T10:19:32.371Z,6.000000
2019-03-12T10:22:02.726Z,6.000000
2019-03-12T10:24:33.065Z,8.100000
2019-03-12T10:27:03.543Z,8.100000
2019-03-12T10:29:33.842Z,6.900000
2019-03-12T10:32:04.278Z,6.900000
2019-03-12T10:34:34.627Z,8.300000
2019-03-12T10:37:11.862Z,8.300000
2019-03-12T10:39:43.580Z,4.700000
2019-03-12T10:42:13.953Z,4.700000
2019-03-12T10:44:44.388Z,4.900000
2019-03-12T10:47:14.725Z,4.900000
2019-03-12T10:49:45.092Z,8.200000
2019-03-12T10:52:15.416Z,8.200000
2019-03-12T10:54:45.801Z,9.400000
2019-03-12T10:57:16.156Z,9.400000
2019-03-12T10:59:46.521Z,7.400000
2019-03-12T11:02:16.756Z,7.400000
2019-03-12T11:04:47.009Z,3.000000
2019-03-12T11:07:17.462Z,3.000000
2019-03-12T11:09:48.131Z,7.400000
2019-03-12T11:12:18.967Z,7.400000
2019-03-12T11:14:49.366Z,6.300000
2019-03-12T11:17:19.819Z,6.300000
2019-03-12T11:19:50.117Z,8.800000
2019-03-12T11:22:21.489Z,8.800000
2019-03-12T11:24:51.857Z,3.900000
2019-03-12T11:27:22.126Z,3.900000
2019-03-12T11:29:52.478Z,3.800000
2019-03-12T11:32:22.850Z,3.800000
2019-03-12T11:34:53.166Z,7.700000
2019-03-12T11:37:23.623Z,7.700000
2019-03-12T11:39:54.083Z,5.900000
2019-03-12T11:42:24.426Z,5.900000
2019-03-12T11:44:54.804Z,4.100000
2019-03-12T11:47:25.200Z,4.100000
2019-03-12T11:49:55.935Z,6.100000
2019-03-12T11:52:26.351Z,6.100000
2019-03-12T11:54:56.738Z,4.600000
2019-03-12T11:57:27.093Z,4.600000
2019-03-12T11:59:57.381Z,3.700000
2019-03-12T12:02:27.648Z,3.700000
2019-03-12T12:04:58.101Z,7.400000
2019-03-12T12:07:28.385Z,7.400000
2019-03-12T12:09:58.763Z,5.600000
2019-03-12T12:12:28.983Z,5.600000
2019-03-12T12:14:59.462Z,8.800000
2019-03-12T12:17:29.759Z,8.800000
2019-03-12T12:20:00.406Z,5.000000
2019-03-12T12:22:30.966Z,5.000000
2019-03-12T12:25:01.422Z,3.900000
2019-03-12T12:27:31.949Z,3.900000
2019-03-12T12:30:02.386Z,6.000000
2019-03-12T12:32:32.707Z,6.000000
2019-03-12T12:35:03.159Z,3.500000
2019-03-12T12:37:33.563Z,3.500000
2019-03-12T12:40:03.988Z,8.300000
2019-03-12T12:42:36.181Z,8.300000
2019-03-12T12:45:06.613Z,3.600000
2019-03-12T12:47:36.951Z,3.600000
2019-03-12T12:50:07.259Z,5.300000
2019-03-12T12:52:37.588Z,5.300000
2019-03-12T12:55:08.066Z,4.300000
2019-03-12T12:57:38.385Z,4.300000
2019-03-12T13:00:08.663Z,6.000000
2019-03-12T13:02:39.064Z,6.000000
2019-03-12T13:05:09.449Z,3.700000
2019-03-12T13:07:39.848Z,3.700000
2019-03-12T13:10:10.168Z,3.900000
2019-03-12T13:12:40.453Z,3.900000
2019-03-12T13:15:10.660Z,4.000000
2019-03-12T13:17:40.956Z,4.000000
2019-03-12T13:20:11.278Z,2.800000
2019-03-12T13:22:41.575Z,2.800000
2019-03-12T13:25:12.022Z,3.800000
2019-03-12T13:27:42.818Z,3.800000
2019-03-12T13:30:13.255Z,3.100000
2019-03-12T13:32:43.757Z,3.100000
2019-03-12T13:35:14.128Z,4.700000
2019-03-12T13:37:44.502Z,4.700000
2019-03-12T13:40:14.793Z,4.200000
2019-03-12T13:42:45.223Z,4.200000
2019-03-12T13:45:15.482Z,3.400000
2019-03-12T13:47:46.042Z,3.400000
2019-03-12T13:50:16.448Z,6.600000
2019-03-12T13:52:46.867Z,6.600000
2019-03-12T13:55:17.289Z,2.400000
2019-03-12T13:57:47.643Z,2.400000
2019-03-12T14:00:17.947Z,2.600000
2019-03-12T14:02:48.471Z,2.600000
2019-03-12T14:05:18.823Z,13.300000
2019-03-12T14:07:49.113Z,13.300000
2019-03-12T14:10:19.511Z,2.200000
2019-03-12T14:12:49.912Z,2.200000
2019-03-12T14:15:20.271Z,4.600000
2019-03-12T14:17:50.647Z,4.600000
2019-03-12T14:20:20.938Z,3.800000
2019-03-12T14:22:51.210Z,3.800000
2019-03-12T14:25:21.578Z,3.600000
2019-03-12T14:27:51.877Z,3.600000
2019-03-12T14:30:22.244Z,3.800000
2019-03-12T14:32:52.592Z,3.800000
2019-03-12T14:35:23.035Z,4.900000
2019-03-12T14:37:53.448Z,4.900000
2019-03-12T14:40:23.834Z,5.900000
2019-03-12T14:42:54.164Z,5.900000
2019-03-12T14:45:24.550Z,4.900000
2019-03-12T14:47:54.892Z,4.900000
2019-03-12T14:50:25.156Z,4.100000
2019-03-12T14:52:55.420Z,4.100000
2019-03-12T14:55:25.765Z,4.800000
2019-03-12T14:58:01.055Z,4.800000
2019-03-12T15:00:31.414Z,3.300000
2019-03-12T15:03:01.837Z,3.300000
2019-03-12T15:05:32.185Z,2.800000
2019-03-12T15:08:02.520Z,2.800000
2019-03-12T15:10:32.890Z,3.500000
2019-03-12T15:13:03.221Z,3.500000
2019-03-12T15:15:33.625Z,3.400000
2019-03-12T15:18:03.896Z,3.400000
2019-03-12T15:20:34.234Z,4.700000
2019-03-12T15:23:04.675Z,4.700000
2019-03-12T15:25:39.992Z,2.600000
2019-03-12T15:28:10.313Z,2.600000
2019-03-12T15:30:40.757Z,6.400000
2019-03-12T15:33:11.102Z,6.700000
2019-03-12T15:35:41.469Z,6.700000
2019-03-12T15:38:11.797Z,5.100000
2019-03-12T15:40:42.275Z,5.100000
2019-03-12T15:43:12.686Z,4.000000
2019-03-12T15:45:43.015Z,4.000000
2019-03-12T15:48:13.332Z,4.500000
2019-03-12T15:50:43.663Z,4.500000
2019-03-12T15:53:13.990Z,4.400000
2019-03-12T15:55:44.312Z,4.400000
2019-03-12T15:58:14.650Z,4.700000
2019-03-12T16:00:44.977Z,4.700000
2019-03-12T16:03:15.277Z,5.800000
2019-03-12T16:05:45.701Z,5.800000
2019-03-12T16:08:16.173Z,3.500000
2019-03-12T16:10:57.445Z,3.500000
2019-03-12T16:13:28.793Z,3.200000
2019-03-12T16:15:59.099Z,3.200000
2019-03-12T16:18:29.425Z,5.100000
2019-03-12T16:20:59.728Z,5.100000
2019-03-12T16:23:29.964Z,6.700000
2019-03-12T16:26:00.341Z,6.700000
2019-03-12T16:28:30.992Z,3.500000
2019-03-12T16:31:01.731Z,3.500000
2019-03-12T16:33:32.047Z,5.600000
2019-03-12T16:36:02.478Z,5.600000
2019-03-12T16:38:32.835Z,3.700000
2019-03-12T16:41:03.270Z,3.700000
2019-03-12T16:43:33.567Z,6.600000
2019-03-12T16:46:03.880Z,6.600000
2019-03-12T16:48:34.139Z,4.100000
2019-03-12T16:51:04.479Z,4.100000
2019-03-12T16:53:34.949Z,3.400000
2019-03-12T16:56:05.255Z,3.400000
2019-03-12T16:58:35.451Z,1.900000
2019-03-12T17:01:05.656Z,1.900000
2019-03-12T17:03:36.003Z,3.000000
2019-03-12T17:06:06.364Z,3.000000
2019-03-12T17:08:36.583Z,4.300000
2019-03-12T17:11:06.886Z,4.300000
2019-03-12T17:13:37.269Z,6.200000
2019-03-12T17:16:07.673Z,6.200000
2019-03-12T17:18:38.084Z,4.200000
2019-03-12T17:21:08.489Z,4.200000
2019-03-12T17:23:43.774Z,6.100000
2019-03-12T17:26:14.042Z,6.100000
2019-03-12T17:28:44.263Z,5.800000
2019-03-12T17:31:14.467Z,5.800000
2019-03-12T17:33:44.853Z,3.800000
2019-03-12T17:36:15.144Z,3.800000
2019-03-12T17:38:46.488Z,6.500000
2019-03-12T17:41:17.593Z,6.500000
2019-03-12T17:43:47.896Z,3.700000
2019-03-12T17:46:18.250Z,3.700000
2019-03-12T17:48:48.554Z,2.700000
2019-03-12T17:51:18.845Z,2.700000
2019-03-12T17:53:49.119Z,3.900000
2019-03-12T17:56:19.502Z,3.900000
2019-03-12T17:58:49.873Z,5.700000
2019-03-12T18:01:20.286Z,5.700000
2019-03-12T18:03:50.648Z,4.000000
2019-03-12T18:06:20.961Z,4.000000
2019-03-12T18:08:51.388Z,4.000000
2019-03-12T18:11:21.785Z,4.000000
2019-03-12T18:13:52.052Z,6.000000
2019-03-12T18:16:22.256Z,6.000000
2019-03-12T18:18:52.529Z,4.400000
2019-03-12T18:21:22.923Z,4.400000
2019-03-12T18:23:53.319Z,6.200000
2019-03-12T18:26:23.708Z,6.200000
2019-03-12T18:28:54.098Z,3.300000
2019-03-12T18:31:29.487Z,3.300000
2019-03-12T18:33:59.807Z,3.900000
2019-03-12T18:36:30.182Z,3.900000
2019-03-12T18:39:03.258Z,7.700000
2019-03-12T18:41:33.857Z,7.700000
2019-03-12T18:44:04.233Z,4.700000
2019-03-12T18:46:34.542Z,4.700000
2019-03-12T18:49:04.914Z,3.200000
2019-03-12T18:51:35.290Z,3.200000
2019-03-12T18:54:05.662Z,3.100000
2019-03-12T18:56:41.258Z,3.100000
2019-03-12T18:59:16.629Z,3.400000
2019-03-12T19:01:51.997Z,3.400000
2019-03-12T19:04:22.389Z,4.400000
2019-03-12T19:06:57.804Z,4.400000
2019-03-12T19:09:28.098Z,3.800000
2019-03-12T19:11:58.566Z,3.800000
2019-03-12T19:14:28.850Z,3.100000
2019-03-12T19:16:59.211Z,3.100000
2019-03-12T19:19:29.500Z,3.600000
2019-03-12T19:21:59.905Z,3.600000
2019-03-12T19:24:35.258Z,4.500000
2019-03-12T19:27:05.607Z,5.800000
2019-03-12T19:29:35.846Z,5.800000
2019-03-12T19:32:06.169Z,2.700000
2019-03-12T19:34:36.497Z,2.700000
2019-03-12T19:37:06.775Z,2.700000
2019-03-12T19:39:37.167Z,2.700000
2019-03-12T19:42:07.432Z,4.000000
2019-03-12T19:44:37.817Z,4.000000
2019-03-12T19:47:08.154Z,4.700000
2019-03-12T19:49:38.486Z,4.700000
2019-03-12T19:52:08.777Z,2.700000
2019-03-12T19:54:39.610Z,2.700000
2019-03-12T19:57:09.844Z,0.800000
2019-03-12T19:59:40.118Z,0.800000
2019-03-12T20:02:15.919Z,0.900000
2019-03-12T20:04:47.576Z,0.900000
2019-03-12T20:07:18.142Z,0.500000
2019-03-12T20:09:48.460Z,0.500000
2019-03-12T20:12:18.885Z,0.400000
2019-03-12T20:14:49.613Z,0.400000
2019-03-12T20:17:20.231Z,0.400000
2019-03-12T20:19:53.833Z,0.400000
2019-03-12T20:22:24.741Z,0.800000
2019-03-12T20:25:01.102Z,0.800000
2019-03-12T20:27:31.475Z,0.700000
2019-03-12T20:30:02.120Z,0.700000
2019-03-12T20:32:32.531Z,0.300000
2019-03-12T20:35:05.223Z,0.300000
2019-03-12T20:37:35.905Z,1.800000
2019-03-12T20:40:06.265Z,1.800000
2019-03-12T20:42:36.610Z,2.000000
2019-03-12T20:45:07.176Z,2.000000
2019-03-12T20:47:37.536Z,1.200000
2019-03-12T20:50:07.971Z,1.200000
2019-03-12T20:52:38.403Z,0.400000
2019-03-12T20:55:08.698Z,0.400000
2019-03-12T20:57:39.153Z,0.700000
2019-03-12T21:00:09.511Z,0.700000
2019-03-12T21:02:39.852Z,2.200000
2019-03-12T21:05:10.227Z,2.200000
2019-03-12T21:07:40.511Z,1.300000
2019-03-12T21:10:10.846Z,1.300000
2019-03-12T21:12:41.210Z,0.600000
2019-03-12T21:15:11.570Z,0.600000
2019-03-12T21:17:42.256Z,2.200000
2019-03-12T21:20:12.614Z,2.200000
2019-03-12T21:22:42.956Z,1.000000
2019-03-12T21:25:13.318Z,1.000000
2019-03-12T21:27:43.660Z,1.100000
2019-03-12T21:30:14.042Z,1.100000
2019-03-12T21:32:44.571Z,2.100000
2019-03-12T21:35:14.945Z,2.100000
2019-03-12T21:37:45.323Z,1.200000
2019-03-12T21:40:15.597Z,1.200000
2019-03-12T21:42:46.094Z,0.700000
2019-03-12T21:45:16.435Z,0.700000
2019-03-12T21:47:46.794Z,2.200000
2019-03-12T21:50:17.175Z,2.200000
2019-03-12T21:52:47.416Z,2.900000
2019-03-12T21:55:17.689Z,2.900000
2019-03-12T21:57:48.148Z,1.400000
2019-03-12T22:00:18.688Z,1.400000
2019-03-12T22:02:49.101Z,1.400000
2019-03-12T22:05:19.292Z,1.400000
2019-03-12T22:07:49.532Z,1.900000
2019-03-12T22:10:19.836Z,1.900000
2019-03-12T22:12:50.227Z,1.900000
2019-03-12T22:15:20.465Z,1.900000
2019-03-12T22:17:50.820Z,4.700000
2019-03-12T22:20:21.255Z,4.700000
2019-03-12T22:22:51.704Z,0.900000
2019-03-12T22:25:22.084Z,0.900000
2019-03-12T22:27:52.389Z,4.400000
2019-03-12T22:30:22.734Z,4.400000
2019-03-12T22:32:53.091Z,4.000000
2019-03-12T22:35:23.502Z,4.000000
2019-03-12T22:37:53.852Z,1.200000
2019-03-12T22:40:24.252Z,1.200000
2019-03-12T22:42:54.538Z,3.800000
2019-03-12T22:45:24.994Z,3.800000
2019-03-12T22:47:55.369Z,7.000000
2019-03-12T22:50:25.697Z,7.000000
2019-03-12T22:52:56.071Z,2.800000
2019-03-12T22:55:26.398Z,2.800000
2019-03-12T22:57:56.739Z,2.500000
2019-03-12T23:00:27.102Z,2.500000
2019-03-12T23:02:57.350Z,2.100000
2019-03-12T23:05:27.894Z,2.100000
2019-03-12T23:07:58.273Z,2.500000
2019-03-12T23:10:28.596Z,2.500000
2019-03-12T23:12:58.962Z,1.100000
2019-03-12T23:15:29.305Z,1.100000
2019-03-12T23:17:59.661Z,2.300000
2019-03-12T23:20:30.026Z,2.300000
2019-03-12T23:23:00.460Z,3.100000
2019-03-12T23:25:30.908Z,3.100000
2019-03-12T23:28:01.167Z,6.200000
2019-03-12T23:30:31.523Z,6.200000
2019-03-12T23:33:01.886Z,1.800000
2019-03-12T23:35:32.290Z,1.800000
2019-03-12T23:38:02.700Z,2.600000
2019-03-12T23:40:32.980Z,2.600000
2019-03-12T23:43:03.331Z,3.800000
2019-03-12T23:45:33.751Z,3.800000
2019-03-12T23:48:04.194Z,4.300000
2019-03-12T23:50:34.540Z,4.300000
2019-03-12T23:53:04.886Z,4.300000
2019-03-12T23:55:35.128Z,4.300000
2019-03-12T23:58:05.597Z,3.200000
